Terminal Aerodrome Forecast
Issued by NWS

Home | Current Version | Previous Version | Text Only | Print | Product List | Glossary On
Versions: 1 2 3 4 5 6 7 8 9 10 11 12 13 14
000
FTUS42 KTBW 232300
TAFLAL
TAF
KLAL 232337Z 2400/2424 30006KT P6SM VCTS BKN050CB BKN250
     FM240100 VRB03KT P6SM SCT250
     FM241500 27005KT P6SM FEW050 SCT250
     FM241800 25007KT P6SM VCTS BKN040CB BKN250
      AMD NOT SKED 2403/2412=

USA.gov is the U.S. government's official web portal to all federal, state and local government web resources and services.